DRZA

Mano Dayak International Airport

Agadez, Niger
METAR DRZA 201100Z 34004KT CAVOK 28/M03 Q1016
Observed Flight Rules
Jan-20 @ 11:00 UTC (48 minutes ago) Visual Flight Rules
Wind Visibility Clouds
340° at 4 knots 10,000+ meters
  • Clear skies
Temperatures Readings
Current 28°C / 82°F
Dewpoint -3°C / 27°F
Humidity 13%
Altimeter 30" Hg
Pressure 1015.92 hPa
Elevation 502
METAR DRZA 201100Z 34004KT CAVOK 28/M03 Q1016
Observed Flight Rules
Jan-20 @ 11:00 UTC
(48 minutes ago)
VFR
Wind Visibility
340° at 4 knots 10,000+ meters
Clouds
  • Clear skies
Temperature Dewpoint
28°C / 82°F -3°C / 27°F
Humidity Altimeter Pressure
13% 30" Hg 1015.92 hPa